Terminal Aerodrome Forecast
Issued by NWS Cleveland, OH

Home | Current Version | Previous Version | Graphics & Text | Print | Product List | Glossary On
Versions: 1 2 3 4 5 6 7 8 9 10 11 12 13 14 15 16
961
FTUS41 KCLE 062335
TAFYNG
TAF
KYNG 062335Z 0700/0724 14008KT 2SM BR OVC004
     FM070200 27010KT 3SM BR OVC006
     FM070500 26012G20KT P6SM OVC008
     FM071000 25012KT P6SM OVC015
     FM071400 25010KT P6SM OVC030
     FM071700 24008KT P6SM OVC100=

USA.gov is the U.S. government's official web portal to all federal, state and local government web resources and services.